sensor_id;sensor_type;location;lat;lon;timestamp;P1;durP1;ratioP1;P2;durP2;ratioP2
46753;SDS011;32500;50.620;3.400;2024-02-28T00:00:00;145.95;;;57.78;;
46753;SDS011;32500;50.620;3.400;2024-02-28T00:02:26;146.85;;;57.38;;
46753;SDS011;32500;50.620;3.400;2024-02-28T00:04:53;144.85;;;57.30;;
46753;SDS011;32500;50.620;3.400;2024-02-28T00:07:18;145.25;;;57.33;;
46753;SDS011;32500;50.620;3.400;2024-02-28T00:09:44;145.43;;;57.03;;
46753;SDS011;32500;50.620;3.400;2024-02-28T00:12:10;144.60;;;57.28;;
46753;SDS011;32500;50.620;3.400;2024-02-28T00:14:35;145.70;;;57.08;;
46753;SDS011;32500;50.620;3.400;2024-02-28T00:17:01;146.63;;;57.45;;
46753;SDS011;32500;50.620;3.400;2024-02-28T00:19:27;145.63;;;57.33;;
46753;SDS011;32500;50.620;3.400;2024-02-28T00:21:52;144.25;;;56.97;;
46753;SDS011;32500;50.620;3.400;2024-02-28T00:24:18;144.60;;;57.45;;
46753;SDS011;32500;50.620;3.400;2024-02-28T00:26:44;144.20;;;56.90;;
46753;SDS011;32500;50.620;3.400;2024-02-28T00:29:10;144.52;;;57.17;;
46753;SDS011;32500;50.620;3.400;2024-02-28T00:31:35;144.68;;;57.50;;
46753;SDS011;32500;50.620;3.400;2024-02-28T00:34:01;145.48;;;57.70;;
46753;SDS011;32500;50.620;3.400;2024-02-28T00:36:27;146.18;;;57.17;;
46753;SDS011;32500;50.620;3.400;2024-02-28T00:38:55;144.85;;;57.25;;
46753;SDS011;32500;50.620;3.400;2024-02-28T00:41:21;145.50;;;57.60;;
46753;SDS011;32500;50.620;3.400;2024-02-28T00:43:47;144.32;;;57.38;;
46753;SDS011;32500;50.620;3.400;2024-02-28T00:46:12;145.27;;;57.35;;
46753;SDS011;32500;50.620;3.400;2024-02-28T00:48:38;144.07;;;57.00;;
46753;SDS011;32500;50.620;3.400;2024-02-28T00:51:04;143.93;;;57.20;;
46753;SDS011;32500;50.620;3.400;2024-02-28T00:53:33;145.27;;;57.28;;
46753;SDS011;32500;50.620;3.400;2024-02-28T00:55:59;147.20;;;57.38;;
46753;SDS011;32500;50.620;3.400;2024-02-28T00:58:24;144.10;;;57.45;;
46753;SDS011;32500;50.620;3.400;2024-02-28T01:00:52;142.98;;;56.85;;
46753;SDS011;32500;50.620;3.400;2024-02-28T01:03:18;143.65;;;57.47;;
46753;SDS011;32500;50.620;3.400;2024-02-28T01:05:44;143.25;;;57.22;;
46753;SDS011;32500;50.620;3.400;2024-02-28T01:08:10;145.10;;;57.47;;
46753;SDS011;32500;50.620;3.400;2024-02-28T01:10:36;143.68;;;57.33;;
46753;SDS011;32500;50.620;3.400;2024-02-28T01:13:03;144.57;;;57.08;;
46753;SDS011;32500;50.620;3.400;2024-02-28T01:15:29;142.90;;;57.13;;
46753;SDS011;32500;50.620;3.400;2024-02-28T01:17:54;143.80;;;56.85;;
46753;SDS011;32500;50.620;3.400;2024-02-28T01:20:20;143.77;;;57.47;;
46753;SDS011;32500;50.620;3.400;2024-02-28T01:22:46;143.43;;;57.10;;
46753;SDS011;32500;50.620;3.400;2024-02-28T01:25:12;143.98;;;57.25;;
46753;SDS011;32500;50.620;3.400;2024-02-28T01:27:38;144.90;;;57.45;;
46753;SDS011;32500;50.620;3.400;2024-02-28T01:30:04;144.38;;;57.13;;
46753;SDS011;32500;50.620;3.400;2024-02-28T01:32:31;144.82;;;57.25;;
46753;SDS011;32500;50.620;3.400;2024-02-28T01:34:56;142.60;;;56.63;;
46753;SDS011;32500;50.620;3.400;2024-02-28T01:37:22;143.68;;;57.33;;
46753;SDS011;32500;50.620;3.400;2024-02-28T01:39:48;144.18;;;57.00;;
46753;SDS011;32500;50.620;3.400;2024-02-28T01:42:14;143.48;;;56.75;;
46753;SDS011;32500;50.620;3.400;2024-02-28T01:44:41;142.35;;;57.10;;
46753;SDS011;32500;50.620;3.400;2024-02-28T01:47:11;141.97;;;56.63;;
46753;SDS011;32500;50.620;3.400;2024-02-28T01:49:37;142.73;;;57.25;;
46753;SDS011;32500;50.620;3.400;2024-02-28T01:52:03;143.55;;;56.88;;
46753;SDS011;32500;50.620;3.400;2024-02-28T01:54:29;143.68;;;57.42;;
46753;SDS011;32500;50.620;3.400;2024-02-28T01:56:56;141.23;;;56.45;;
46753;SDS011;32500;50.620;3.400;2024-02-28T01:59:22;142.52;;;56.95;;
46753;SDS011;32500;50.620;3.400;2024-02-28T02:01:51;142.82;;;56.83;;
46753;SDS011;32500;50.620;3.400;2024-02-28T02:04:16;142.48;;;56.75;;
46753;SDS011;32500;50.620;3.400;2024-02-28T02:06:42;142.15;;;56.88;;
46753;SDS011;32500;50.620;3.400;2024-02-28T02:09:10;141.25;;;56.47;;
46753;SDS011;32500;50.620;3.400;2024-02-28T02:11:37;141.90;;;56.38;;
46753;SDS011;32500;50.620;3.400;2024-02-28T02:14:04;143.30;;;56.85;;
46753;SDS011;32500;50.620;3.400;2024-02-28T02:16:29;142.18;;;56.72;;
46753;SDS011;32500;50.620;3.400;2024-02-28T02:18:55;141.43;;;56.45;;
46753;SDS011;32500;50.620;3.400;2024-02-28T02:21:26;141.85;;;56.72;;
46753;SDS011;32500;50.620;3.400;2024-02-28T02:23:55;141.57;;;56.35;;
46753;SDS011;32500;50.620;3.400;2024-02-28T02:26:21;141.82;;;56.47;;
46753;SDS011;32500;50.620;3.400;2024-02-28T02:28:46;142.85;;;56.80;;
46753;SDS011;32500;50.620;3.400;2024-02-28T02:31:12;142.35;;;56.65;;
46753;SDS011;32500;50.620;3.400;2024-02-28T02:33:39;140.90;;;56.60;;
46753;SDS011;32500;50.620;3.400;2024-02-28T02:36:04;140.82;;;56.22;;
46753;SDS011;32500;50.620;3.400;2024-02-28T02:38:30;141.35;;;56.58;;
46753;SDS011;32500;50.620;3.400;2024-02-28T02:40:56;141.95;;;56.50;;
46753;SDS011;32500;50.620;3.400;2024-02-28T02:43:22;140.63;;;55.97;;
46753;SDS011;32500;50.620;3.400;2024-02-28T02:45:47;142.23;;;56.58;;
46753;SDS011;32500;50.620;3.400;2024-02-28T02:48:13;140.75;;;56.35;;
46753;SDS011;32500;50.620;3.400;2024-02-28T02:50:39;141.48;;;56.28;;
46753;SDS011;32500;50.620;3.400;2024-02-28T02:53:06;141.48;;;56.47;;
46753;SDS011;32500;50.620;3.400;2024-02-28T02:55:34;141.48;;;56.22;;
46753;SDS011;32500;50.620;3.400;2024-02-28T02:58:00;141.55;;;56.22;;
46753;SDS011;32500;50.620;3.400;2024-02-28T03:00:25;142.00;;;56.67;;
46753;SDS011;32500;50.620;3.400;2024-02-28T03:02:51;141.20;;;57.05;;
46753;SDS011;32500;50.620;3.400;2024-02-28T03:05:17;140.82;;;56.03;;
46753;SDS011;32500;50.620;3.400;2024-02-28T03:07:42;140.23;;;56.28;;
46753;SDS011;32500;50.620;3.400;2024-02-28T03:10:08;142.45;;;56.50;;
46753;SDS011;32500;50.620;3.400;2024-02-28T03:12:35;140.65;;;56.20;;
46753;SDS011;32500;50.620;3.400;2024-02-28T03:15:01;141.43;;;56.35;;
46753;SDS011;32500;50.620;3.400;2024-02-28T03:17:28;140.27;;;56.15;;
46753;SDS011;32500;50.620;3.400;2024-02-28T03:19:54;141.23;;;56.10;;
46753;SDS011;32500;50.620;3.400;2024-02-28T03:22:19;141.02;;;56.45;;
46753;SDS011;32500;50.620;3.400;2024-02-28T03:24:45;141.88;;;56.47;;
46753;SDS011;32500;50.620;3.400;2024-02-28T03:27:11;140.07;;;55.85;;
46753;SDS011;32500;50.620;3.400;2024-02-28T03:29:37;138.82;;;55.70;;
46753;SDS011;32500;50.620;3.400;2024-02-28T03:32:03;141.40;;;56.70;;
46753;SDS011;32500;50.620;3.400;2024-02-28T03:34:29;140.85;;;56.33;;
46753;SDS011;32500;50.620;3.400;2024-02-28T03:36:55;139.57;;;55.83;;
46753;SDS011;32500;50.620;3.400;2024-02-28T03:39:21;140.57;;;56.20;;
46753;SDS011;32500;50.620;3.400;2024-02-28T03:41:46;140.50;;;56.40;;
46753;SDS011;32500;50.620;3.400;2024-02-28T03:44:12;139.95;;;56.10;;
46753;SDS011;32500;50.620;3.400;2024-02-28T03:46:38;140.63;;;56.22;;
46753;SDS011;32500;50.620;3.400;2024-02-28T03:49:03;140.75;;;56.38;;
46753;SDS011;32500;50.620;3.400;2024-02-28T03:51:29;139.82;;;56.00;;
46753;SDS011;32500;50.620;3.400;2024-02-28T03:53:55;140.63;;;56.35;;
46753;SDS011;32500;50.620;3.400;2024-02-28T03:56:21;142.82;;;56.70;;
46753;SDS011;32500;50.620;3.400;2024-02-28T03:58:50;140.55;;;56.10;;
46753;SDS011;32500;50.620;3.400;2024-02-28T04:01:17;141.00;;;56.13;;
46753;SDS011;32500;50.620;3.400;2024-02-28T04:03:43;139.60;;;55.88;;
46753;SDS011;32500;50.620;3.400;2024-02-28T04:06:08;141.43;;;56.10;;
46753;SDS011;32500;50.620;3.400;2024-02-28T04:08:34;140.52;;;56.08;;
46753;SDS011;32500;50.620;3.400;2024-02-28T04:11:00;140.13;;;56.22;;
46753;SDS011;32500;50.620;3.400;2024-02-28T04:13:25;140.27;;;56.08;;
46753;SDS011;32500;50.620;3.400;2024-02-28T04:15:51;139.68;;;55.83;;
46753;SDS011;32500;50.620;3.400;2024-02-28T04:18:17;141.23;;;55.78;;
46753;SDS011;32500;50.620;3.400;2024-02-28T04:20:42;140.00;;;55.80;;
46753;SDS011;32500;50.620;3.400;2024-02-28T04:23:08;139.40;;;56.13;;
46753;SDS011;32500;50.620;3.400;2024-02-28T04:25:34;139.80;;;56.03;;
46753;SDS011;32500;50.620;3.400;2024-02-28T04:28:01;141.52;;;56.28;;
46753;SDS011;32500;50.620;3.400;2024-02-28T04:30:27;140.20;;;55.85;;
46753;SDS011;32500;50.620;3.400;2024-02-28T04:32:53;140.85;;;56.05;;
46753;SDS011;32500;50.620;3.400;2024-02-28T04:35:19;141.35;;;56.28;;
46753;SDS011;32500;50.620;3.400;2024-02-28T04:37:45;141.63;;;56.10;;
46753;SDS011;32500;50.620;3.400;2024-02-28T04:40:11;139.15;;;55.85;;
46753;SDS011;32500;50.620;3.400;2024-02-28T04:42:38;139.80;;;55.83;;
46753;SDS011;32500;50.620;3.400;2024-02-28T04:45:04;141.15;;;56.45;;
46753;SDS011;32500;50.620;3.400;2024-02-28T04:47:30;140.50;;;56.42;;
46753;SDS011;32500;50.620;3.400;2024-02-28T04:49:56;139.85;;;55.75;;
46753;SDS011;32500;50.620;3.400;2024-02-28T04:52:22;141.75;;;56.58;;
46753;SDS011;32500;50.620;3.400;2024-02-28T04:54:50;141.93;;;55.80;;
46753;SDS011;32500;50.620;3.400;2024-02-28T04:57:16;139.23;;;55.80;;
46753;SDS011;32500;50.620;3.400;2024-02-28T04:59:42;140.93;;;56.22;;
46753;SDS011;32500;50.620;3.400;2024-02-28T05:02:09;140.20;;;56.00;;
46753;SDS011;32500;50.620;3.400;2024-02-28T05:04:34;140.95;;;56.45;;
46753;SDS011;32500;50.620;3.400;2024-02-28T05:07:00;140.30;;;56.03;;
46753;SDS011;32500;50.620;3.400;2024-02-28T05:09:26;140.98;;;56.28;;
46753;SDS011;32500;50.620;3.400;2024-02-28T05:11:52;140.00;;;56.20;;
46753;SDS011;32500;50.620;3.400;2024-02-28T05:14:17;140.00;;;56.25;;
46753;SDS011;32500;50.620;3.400;2024-02-28T05:16:43;141.43;;;55.63;;
46753;SDS011;32500;50.620;3.400;2024-02-28T05:19:09;140.25;;;56.17;;
46753;SDS011;32500;50.620;3.400;2024-02-28T05:21:41;139.32;;;55.88;;
46753;SDS011;32500;50.620;3.400;2024-02-28T05:24:07;142.02;;;56.40;;
46753;SDS011;32500;50.620;3.400;2024-02-28T05:26:37;141.45;;;56.25;;
46753;SDS011;32500;50.620;3.400;2024-02-28T05:29:03;140.27;;;56.33;;
46753;SDS011;32500;50.620;3.400;2024-02-28T05:31:30;141.00;;;56.08;;
46753;SDS011;32500;50.620;3.400;2024-02-28T05:33:59;141.45;;;55.85;;
46753;SDS011;32500;50.620;3.400;2024-02-28T05:36:26;140.07;;;55.95;;
46753;SDS011;32500;50.620;3.400;2024-02-28T05:38:54;140.98;;;56.22;;
46753;SDS011;32500;50.620;3.400;2024-02-28T05:41:21;140.40;;;56.22;;
46753;SDS011;32500;50.620;3.400;2024-02-28T05:43:47;141.10;;;56.58;;
46753;SDS011;32500;50.620;3.400;2024-02-28T05:46:14;145.00;;;56.20;;
46753;SDS011;32500;50.620;3.400;2024-02-28T05:48:40;145.57;;;56.15;;
46753;SDS011;32500;50.620;3.400;2024-02-28T05:51:07;145.35;;;56.03;;
46753;SDS011;32500;50.620;3.400;2024-02-28T05:53:32;150.27;;;58.35;;
46753;SDS011;32500;50.620;3.400;2024-02-28T05:56:01;147.75;;;58.47;;
46753;SDS011;32500;50.620;3.400;2024-02-28T05:58:27;144.05;;;57.95;;
46753;SDS011;32500;50.620;3.400;2024-02-28T06:00:53;144.95;;;56.78;;
46753;SDS011;32500;50.620;3.400;2024-02-28T06:03:19;145.20;;;57.28;;
46753;SDS011;32500;50.620;3.400;2024-02-28T06:05:45;143.93;;;56.85;;
46753;SDS011;32500;50.620;3.400;2024-02-28T06:08:11;141.98;;;56.88;;
46753;SDS011;32500;50.620;3.400;2024-02-28T06:10:37;143.50;;;56.83;;
46753;SDS011;32500;50.620;3.400;2024-02-28T06:13:03;145.57;;;56.67;;
46753;SDS011;32500;50.620;3.400;2024-02-28T06:15:29;141.57;;;56.50;;
46753;SDS011;32500;50.620;3.400;2024-02-28T06:17:58;142.25;;;56.67;;
46753;SDS011;32500;50.620;3.400;2024-02-28T06:20:25;141.57;;;56.65;;
46753;SDS011;32500;50.620;3.400;2024-02-28T06:22:51;145.85;;;56.67;;
46753;SDS011;32500;50.620;3.400;2024-02-28T06:25:17;143.93;;;56.40;;
46753;SDS011;32500;50.620;3.400;2024-02-28T06:27:45;142.23;;;56.33;;
46753;SDS011;32500;50.620;3.400;2024-02-28T06:30:11;141.93;;;56.42;;
46753;SDS011;32500;50.620;3.400;2024-02-28T06:32:40;148.90;;;56.90;;
46753;SDS011;32500;50.620;3.400;2024-02-28T06:35:08;142.27;;;56.65;;
46753;SDS011;32500;50.620;3.400;2024-02-28T06:37:35;143.10;;;56.65;;
46753;SDS011;32500;50.620;3.400;2024-02-28T06:40:02;141.63;;;57.00;;
46753;SDS011;32500;50.620;3.400;2024-02-28T06:42:29;146.82;;;56.83;;
46753;SDS011;32500;50.620;3.400;2024-02-28T06:44:55;144.32;;;56.72;;
46753;SDS011;32500;50.620;3.400;2024-02-28T06:47:20;146.63;;;57.20;;
46753;SDS011;32500;50.620;3.400;2024-02-28T06:49:46;145.90;;;56.67;;
46753;SDS011;32500;50.620;3.400;2024-02-28T06:52:12;141.75;;;55.95;;
46753;SDS011;32500;50.620;3.400;2024-02-28T06:54:39;144.88;;;57.28;;
46753;SDS011;32500;50.620;3.400;2024-02-28T06:57:04;147.18;;;57.35;;
46753;SDS011;32500;50.620;3.400;2024-02-28T06:59:30;142.23;;;57.10;;
46753;SDS011;32500;50.620;3.400;2024-02-28T07:01:56;149.70;;;56.88;;
46753;SDS011;32500;50.620;3.400;2024-02-28T07:04:22;146.20;;;56.70;;
46753;SDS011;32500;50.620;3.400;2024-02-28T07:06:47;144.30;;;56.13;;
46753;SDS011;32500;50.620;3.400;2024-02-28T07:09:13;142.95;;;56.72;;
46753;SDS011;32500;50.620;3.400;2024-02-28T07:11:40;144.13;;;57.08;;
46753;SDS011;32500;50.620;3.400;2024-02-28T07:14:06;145.38;;;56.22;;
46753;SDS011;32500;50.620;3.400;2024-02-28T07:16:31;147.07;;;55.95;;
46753;SDS011;32500;50.620;3.400;2024-02-28T07:18:59;143.07;;;56.67;;
46753;SDS011;32500;50.620;3.400;2024-02-28T07:21:25;143.05;;;56.15;;
46753;SDS011;32500;50.620;3.400;2024-02-28T07:23:51;141.95;;;56.28;;
46753;SDS011;32500;50.620;3.400;2024-02-28T07:26:16;146.77;;;56.53;;
46753;SDS011;32500;50.620;3.400;2024-02-28T07:28:42;143.82;;;56.25;;
46753;SDS011;32500;50.620;3.400;2024-02-28T07:31:17;142.07;;;56.45;;
46753;SDS011;32500;50.620;3.400;2024-02-28T07:33:43;144.90;;;56.50;;
46753;SDS011;32500;50.620;3.400;2024-02-28T07:36:10;146.48;;;56.20;;
46753;SDS011;32500;50.620;3.400;2024-02-28T07:38:36;143.68;;;56.55;;
46753;SDS011;32500;50.620;3.400;2024-02-28T07:41:01;146.00;;;56.88;;
46753;SDS011;32500;50.620;3.400;2024-02-28T07:43:27;141.75;;;56.58;;
46753;SDS011;32500;50.620;3.400;2024-02-28T07:45:57;141.20;;;56.22;;
46753;SDS011;32500;50.620;3.400;2024-02-28T07:48:23;149.32;;;56.42;;
46753;SDS011;32500;50.620;3.400;2024-02-28T07:50:49;144.65;;;56.78;;
46753;SDS011;32500;50.620;3.400;2024-02-28T07:53:15;147.73;;;56.88;;
46753;SDS011;32500;50.620;3.400;2024-02-28T07:55:41;144.25;;;57.15;;
46753;SDS011;32500;50.620;3.400;2024-02-28T07:58:07;144.23;;;56.28;;
46753;SDS011;32500;50.620;3.400;2024-02-28T08:00:34;144.07;;;56.60;;
46753;SDS011;32500;50.620;3.400;2024-02-28T08:03:00;145.40;;;57.08;;
46753;SDS011;32500;50.620;3.400;2024-02-28T08:05:25;143.52;;;57.08;;
46753;SDS011;32500;50.620;3.400;2024-02-28T08:07:51;146.23;;;56.38;;
46753;SDS011;32500;50.620;3.400;2024-02-28T08:10:17;146.23;;;56.92;;
46753;SDS011;32500;50.620;3.400;2024-02-28T08:12:42;149.65;;;57.40;;
46753;SDS011;32500;50.620;3.400;2024-02-28T08:15:08;144.40;;;56.58;;
46753;SDS011;32500;50.620;3.400;2024-02-28T08:17:34;146.43;;;57.15;;
46753;SDS011;32500;50.620;3.400;2024-02-28T08:20:01;150.18;;;57.28;;
46753;SDS011;32500;50.620;3.400;2024-02-28T08:22:29;145.40;;;56.63;;
46753;SDS011;32500;50.620;3.400;2024-02-28T08:24:56;145.60;;;57.10;;
46753;SDS011;32500;50.620;3.400;2024-02-28T08:27:21;146.60;;;57.50;;
46753;SDS011;32500;50.620;3.400;2024-02-28T08:29:49;145.82;;;56.92;;
46753;SDS011;32500;50.620;3.400;2024-02-28T08:32:15;147.27;;;57.10;;
46753;SDS011;32500;50.620;3.400;2024-02-28T08:34:45;146.93;;;57.22;;
46753;SDS011;32500;50.620;3.400;2024-02-28T08:37:14;147.48;;;56.92;;
46753;SDS011;32500;50.620;3.400;2024-02-28T08:39:41;147.65;;;57.35;;
46753;SDS011;32500;50.620;3.400;2024-02-28T08:42:06;145.18;;;57.05;;
46753;SDS011;32500;50.620;3.400;2024-02-28T08:44:32;144.88;;;56.75;;
46753;SDS011;32500;50.620;3.400;2024-02-28T08:46:58;146.25;;;57.03;;
46753;SDS011;32500;50.620;3.400;2024-02-28T08:49:25;146.60;;;57.35;;
46753;SDS011;32500;50.620;3.400;2024-02-28T08:51:52;144.93;;;56.22;;
46753;SDS011;32500;50.620;3.400;2024-02-28T08:54:21;146.35;;;57.03;;
46753;SDS011;32500;50.620;3.400;2024-02-28T08:56:47;149.35;;;57.03;;
46753;SDS011;32500;50.620;3.400;2024-02-28T08:59:12;149.25;;;57.10;;
46753;SDS011;32500;50.620;3.400;2024-02-28T09:01:42;144.98;;;56.85;;
46753;SDS011;32500;50.620;3.400;2024-02-28T09:04:11;145.85;;;56.75;;
46753;SDS011;32500;50.620;3.400;2024-02-28T09:06:38;145.00;;;57.22;;
46753;SDS011;32500;50.620;3.400;2024-02-28T09:09:04;147.38;;;57.00;;
46753;SDS011;32500;50.620;3.400;2024-02-28T09:11:30;148.43;;;57.50;;
46753;SDS011;32500;50.620;3.400;2024-02-28T09:13:56;148.27;;;57.45;;
46753;SDS011;32500;50.620;3.400;2024-02-28T09:16:22;147.15;;;56.83;;
46753;SDS011;32500;50.620;3.400;2024-02-28T09:18:49;146.30;;;56.88;;
46753;SDS011;32500;50.620;3.400;2024-02-28T09:21:14;149.88;;;57.25;;
46753;SDS011;32500;50.620;3.400;2024-02-28T09:23:41;150.55;;;57.40;;
46753;SDS011;32500;50.620;3.400;2024-02-28T09:26:07;148.35;;;57.10;;
46753;SDS011;32500;50.620;3.400;2024-02-28T09:28:34;148.88;;;57.45;;
46753;SDS011;32500;50.620;3.400;2024-02-28T09:31:05;145.80;;;57.22;;
46753;SDS011;32500;50.620;3.400;2024-02-28T09:33:34;149.45;;;57.40;;
46753;SDS011;32500;50.620;3.400;2024-02-28T09:36:01;147.60;;;57.17;;
46753;SDS011;32500;50.620;3.400;2024-02-28T09:38:28;145.80;;;57.28;;
46753;SDS011;32500;50.620;3.400;2024-02-28T09:40:54;147.50;;;57.00;;
46753;SDS011;32500;50.620;3.400;2024-02-28T09:43:30;147.40;;;57.47;;
46753;SDS011;32500;50.620;3.400;2024-02-28T09:46:03;148.10;;;58.03;;
46753;SDS011;32500;50.620;3.400;2024-02-28T09:48:30;150.82;;;57.85;;
46753;SDS011;32500;50.620;3.400;2024-02-28T09:50:56;149.88;;;57.83;;
46753;SDS011;32500;50.620;3.400;2024-02-28T09:53:23;147.38;;;57.33;;
46753;SDS011;32500;50.620;3.400;2024-02-28T09:55:50;149.52;;;57.80;;
46753;SDS011;32500;50.620;3.400;2024-02-28T09:58:18;149.63;;;57.08;;
46753;SDS011;32500;50.620;3.400;2024-02-28T10:00:47;150.55;;;58.05;;
46753;SDS011;32500;50.620;3.400;2024-02-28T10:03:16;147.98;;;57.60;;
46753;SDS011;32500;50.620;3.400;2024-02-28T10:05:46;150.50;;;57.88;;
46753;SDS011;32500;50.620;3.400;2024-02-28T10:08:12;147.32;;;57.20;;
46753;SDS011;32500;50.620;3.400;2024-02-28T10:10:46;149.60;;;57.72;;
46753;SDS011;32500;50.620;3.400;2024-02-28T10:13:16;146.90;;;57.20;;
46753;SDS011;32500;50.620;3.400;2024-02-28T10:15:42;150.05;;;57.45;;
46753;SDS011;32500;50.620;3.400;2024-02-28T10:18:10;148.30;;;57.58;;
46753;SDS011;32500;50.620;3.400;2024-02-28T10:20:36;145.20;;;56.63;;
46753;SDS011;32500;50.620;3.400;2024-02-28T10:23:04;149.90;;;57.55;;
46753;SDS011;32500;50.620;3.400;2024-02-28T10:25:31;147.57;;;57.40;;
46753;SDS011;32500;50.620;3.400;2024-02-28T10:28:00;153.95;;;57.15;;
46753;SDS011;32500;50.620;3.400;2024-02-28T10:30:27;155.75;;;57.90;;
46753;SDS011;32500;50.620;3.400;2024-02-28T10:32:55;152.30;;;57.80;;
46753;SDS011;32500;50.620;3.400;2024-02-28T10:35:21;156.73;;;57.72;;
46753;SDS011;32500;50.620;3.400;2024-02-28T10:37:51;152.20;;;57.67;;
46753;SDS011;32500;50.620;3.400;2024-02-28T10:40:18;155.23;;;58.15;;
46753;SDS011;32500;50.620;3.400;2024-02-28T10:42:45;153.40;;;56.97;;
46753;SDS011;32500;50.620;3.400;2024-02-28T10:45:12;168.68;;;58.95;;
46753;SDS011;32500;50.620;3.400;2024-02-28T10:47:38;157.70;;;57.35;;
46753;SDS011;32500;50.620;3.400;2024-02-28T10:50:04;153.25;;;57.28;;
46753;SDS011;32500;50.620;3.400;2024-02-28T10:52:32;159.80;;;57.45;;
46753;SDS011;32500;50.620;3.400;2024-02-28T10:54:59;154.75;;;57.92;;
46753;SDS011;32500;50.620;3.400;2024-02-28T10:57:27;151.63;;;56.95;;
46753;SDS011;32500;50.620;3.400;2024-02-28T10:59:55;152.10;;;57.33;;
46753;SDS011;32500;50.620;3.400;2024-02-28T11:02:23;149.73;;;57.35;;
46753;SDS011;32500;50.620;3.400;2024-02-28T11:04:51;150.63;;;57.95;;
46753;SDS011;32500;50.620;3.400;2024-02-28T11:07:20;154.18;;;57.30;;
46753;SDS011;32500;50.620;3.400;2024-02-28T11:09:53;155.80;;;57.60;;
46753;SDS011;32500;50.620;3.400;2024-02-28T11:12:27;150.07;;;57.20;;
46753;SDS011;32500;50.620;3.400;2024-02-28T11:14:57;149.68;;;57.65;;
46753;SDS011;32500;50.620;3.400;2024-02-28T11:17:30;148.27;;;56.90;;
46753;SDS011;32500;50.620;3.400;2024-02-28T11:19:56;152.50;;;57.30;;
46753;SDS011;32500;50.620;3.400;2024-02-28T11:22:22;151.05;;;57.33;;
46753;SDS011;32500;50.620;3.400;2024-02-28T11:24:48;152.27;;;56.92;;
46753;SDS011;32500;50.620;3.400;2024-02-28T11:27:15;149.85;;;57.25;;
46753;SDS011;32500;50.620;3.400;2024-02-28T11:29:41;151.43;;;57.28;;
46753;SDS011;32500;50.620;3.400;2024-02-28T11:32:10;151.15;;;57.55;;
46753;SDS011;32500;50.620;3.400;2024-02-28T11:34:37;153.98;;;57.05;;
46753;SDS011;32500;50.620;3.400;2024-02-28T11:37:05;155.13;;;57.05;;
46753;SDS011;32500;50.620;3.400;2024-02-28T11:39:31;150.07;;;57.00;;
46753;SDS011;32500;50.620;3.400;2024-02-28T11:44:39;151.68;;;57.80;;
46753;SDS011;32500;50.620;3.400;2024-02-28T11:47:05;149.80;;;57.08;;
46753;SDS011;32500;50.620;3.400;2024-02-28T11:49:35;150.90;;;56.67;;
46753;SDS011;32500;50.620;3.400;2024-02-28T11:52:02;147.90;;;56.50;;
46753;SDS011;32500;50.620;3.400;2024-02-28T11:54:29;149.68;;;57.42;;
46753;SDS011;32500;50.620;3.400;2024-02-28T11:56:55;146.02;;;56.60;;
46753;SDS011;32500;50.620;3.400;2024-02-28T11:59:20;151.73;;;57.03;;
46753;SDS011;32500;50.620;3.400;2024-02-28T12:01:46;149.57;;;57.28;;
46753;SDS011;32500;50.620;3.400;2024-02-28T12:04:12;150.13;;;57.58;;
46753;SDS011;32500;50.620;3.400;2024-02-28T12:06:38;149.18;;;57.10;;
46753;SDS011;32500;50.620;3.400;2024-02-28T12:09:08;151.35;;;57.58;;
46753;SDS011;32500;50.620;3.400;2024-02-28T12:11:37;150.73;;;57.88;;
46753;SDS011;32500;50.620;3.400;2024-02-28T12:14:03;152.15;;;57.10;;
46753;SDS011;32500;50.620;3.400;2024-02-28T12:16:34;153.15;;;57.92;;
46753;SDS011;32500;50.620;3.400;2024-02-28T12:19:09;153.68;;;57.83;;
46753;SDS011;32500;50.620;3.400;2024-02-28T12:21:39;152.93;;;57.92;;
46753;SDS011;32500;50.620;3.400;2024-02-28T12:24:08;151.23;;;57.60;;
46753;SDS011;32500;50.620;3.400;2024-02-28T12:26:35;152.85;;;57.38;;
46753;SDS011;32500;50.620;3.400;2024-02-28T12:29:02;153.40;;;57.50;;
46753;SDS011;32500;50.620;3.400;2024-02-28T12:31:27;157.63;;;57.88;;
46753;SDS011;32500;50.620;3.400;2024-02-28T12:33:54;151.50;;;57.33;;
46753;SDS011;32500;50.620;3.400;2024-02-28T12:36:20;150.32;;;57.05;;
46753;SDS011;32500;50.620;3.400;2024-02-28T12:38:46;153.60;;;57.65;;
46753;SDS011;32500;50.620;3.400;2024-02-28T12:41:12;150.00;;;57.20;;
46753;SDS011;32500;50.620;3.400;2024-02-28T12:43:38;151.38;;;57.70;;
46753;SDS011;32500;50.620;3.400;2024-02-28T12:46:04;150.10;;;57.33;;
46753;SDS011;32500;50.620;3.400;2024-02-28T12:48:30;150.15;;;57.70;;
46753;SDS011;32500;50.620;3.400;2024-02-28T12:51:02;152.75;;;58.17;;
46753;SDS011;32500;50.620;3.400;2024-02-28T12:53:27;153.13;;;58.72;;
46753;SDS011;32500;50.620;3.400;2024-02-28T12:55:53;152.68;;;58.95;;
46753;SDS011;32500;50.620;3.400;2024-02-28T12:58:19;153.18;;;59.75;;
46753;SDS011;32500;50.620;3.400;2024-02-28T13:00:44;158.43;;;59.40;;
46753;SDS011;32500;50.620;3.400;2024-02-28T13:03:10;156.38;;;59.60;;
46753;SDS011;32500;50.620;3.400;2024-02-28T13:05:36;154.50;;;60.05;;
46753;SDS011;32500;50.620;3.400;2024-02-28T13:08:02;154.00;;;59.83;;
46753;SDS011;32500;50.620;3.400;2024-02-28T13:10:28;154.35;;;59.40;;
46753;SDS011;32500;50.620;3.400;2024-02-28T13:12:55;153.10;;;59.75;;
46753;SDS011;32500;50.620;3.400;2024-02-28T13:15:21;150.40;;;59.42;;
46753;SDS011;32500;50.620;3.400;2024-02-28T13:17:46;154.70;;;59.88;;
46753;SDS011;32500;50.620;3.400;2024-02-28T13:20:14;151.13;;;59.03;;
46753;SDS011;32500;50.620;3.400;2024-02-28T13:22:40;152.25;;;59.40;;
46753;SDS011;32500;50.620;3.400;2024-02-28T13:25:06;157.07;;;59.15;;
46753;SDS011;32500;50.620;3.400;2024-02-28T13:27:32;153.10;;;59.58;;
46753;SDS011;32500;50.620;3.400;2024-02-28T13:29:58;152.93;;;58.60;;
46753;SDS011;32500;50.620;3.400;2024-02-28T13:32:23;153.65;;;58.55;;
46753;SDS011;32500;50.620;3.400;2024-02-28T13:34:49;151.70;;;58.67;;
46753;SDS011;32500;50.620;3.400;2024-02-28T13:37:14;152.00;;;58.63;;
46753;SDS011;32500;50.620;3.400;2024-02-28T13:39:40;150.82;;;58.47;;
46753;SDS011;32500;50.620;3.400;2024-02-28T13:42:06;153.60;;;58.70;;
46753;SDS011;32500;50.620;3.400;2024-02-28T13:44:34;152.57;;;58.95;;
46753;SDS011;32500;50.620;3.400;2024-02-28T13:47:01;151.05;;;58.55;;
46753;SDS011;32500;50.620;3.400;2024-02-28T13:49:27;166.48;;;71.22;;
46753;SDS011;32500;50.620;3.400;2024-02-28T13:51:53;172.68;;;74.05;;
46753;SDS011;32500;50.620;3.400;2024-02-28T13:54:19;170.27;;;72.78;;
46753;SDS011;32500;50.620;3.400;2024-02-28T13:56:45;173.60;;;73.25;;
46753;SDS011;32500;50.620;3.400;2024-02-28T13:59:10;172.18;;;73.60;;
46753;SDS011;32500;50.620;3.400;2024-02-28T14:01:36;169.52;;;71.57;;
46753;SDS011;32500;50.620;3.400;2024-02-28T14:04:02;168.82;;;69.35;;
46753;SDS011;32500;50.620;3.400;2024-02-28T14:06:28;165.93;;;69.88;;